CheckWX is a tool to help pilots better visualize weather data.  It is not intended as a substitute for an official pre-flight weather briefing.

13:42:16 UTC

ENML METAR
Molde Airport
Årø, Norway
Current

22 mins ago

ENML 201320Z 25007KT 9999 FEW060 22/15 Q1007
Observed
Jul-20 @ 13:20 UTC
Wind
  • 250° at 7 KTS
Visibility
10,000+ meters
Flight Rules
VFR
Cloud Levels
  • Few at 6,000' AGL
Temperature
22°C / 72°F
Dewpoint
15°C / 59°F
Humidity
65%
Altimeter
29.73" Hg
Pressure
1006.92 hPa
Previous

52 mins ago

ENML 201250Z 24006KT 9999 FEW060 21/15 Q1007
Observed
Jul-20 @ 12:50 UTC
Wind
  • 240° at 6 KTS
Visibility
10,000+ meters
Flight Rules
VFR
Cloud Levels
  • Few at 6,000' AGL
Temperature
21°C / 70°F
Dewpoint
15°C / 59°F
Humidity
69%
Altimeter
29.73" Hg
Pressure
1006.92 hPa
Previous

1 hour ago

ENML 201220Z 25007KT 9999 FEW060 20/15 Q1008
Observed
Jul-20 @ 12:20 UTC
Wind
  • 250° at 7 KTS
Visibility
10,000+ meters
Flight Rules
VFR
Cloud Levels
  • Few at 6,000' AGL
Temperature
20°C / 68°F
Dewpoint
15°C / 59°F
Humidity
73%
Altimeter
29.76" Hg
Pressure
1007.92 hPa